sensor_id;sensor_type;location;lat;lon;timestamp;temperature;humidity
8979;DHT22;4524;51.364;5.448;2023-03-31T00:00:52;12.10;99.90
8979;DHT22;4524;51.364;5.448;2023-03-31T00:03:20;12.10;99.90
8979;DHT22;4524;51.364;5.448;2023-03-31T00:05:55;12.10;99.90
8979;DHT22;4524;51.364;5.448;2023-03-31T00:08:24;12.00;99.90
8979;DHT22;4524;51.364;5.448;2023-03-31T00:10:58;12.10;99.90
8979;DHT22;4524;51.364;5.448;2023-03-31T00:13:27;12.10;99.90
8979;DHT22;4524;51.364;5.448;2023-03-31T00:15:56;12.10;99.90
8979;DHT22;4524;51.364;5.448;2023-03-31T00:18:24;12.00;99.90
8979;DHT22;4524;51.364;5.448;2023-03-31T00:20:54;12.00;99.90
8979;DHT22;4524;51.364;5.448;2023-03-31T00:23:24;12.00;99.90
8979;DHT22;4524;51.364;5.448;2023-03-31T00:25:54;12.00;99.90
8979;DHT22;4524;51.364;5.448;2023-03-31T00:28:22;11.90;99.90
8979;DHT22;4524;51.364;5.448;2023-03-31T00:30:50;11.90;99.90
8979;DHT22;4524;51.364;5.448;2023-03-31T00:33:19;11.80;1.00
8979;DHT22;4524;51.364;5.448;2023-03-31T00:35:50;11.80;1.00
8979;DHT22;4524;51.364;5.448;2023-03-31T00:38:19;11.70;1.00
8979;DHT22;4524;51.364;5.448;2023-03-31T00:40:48;11.70;1.00
8979;DHT22;4524;51.364;5.448;2023-03-31T00:43:28;11.80;1.00
8979;DHT22;4524;51.364;5.448;2023-03-31T00:46:12;11.80;1.00
8979;DHT22;4524;51.364;5.448;2023-03-31T00:48:48;11.80;1.00
8979;DHT22;4524;51.364;5.448;2023-03-31T00:51:17;11.80;99.90
8979;DHT22;4524;51.364;5.448;2023-03-31T00:53:50;11.80;1.00
8979;DHT22;4524;51.364;5.448;2023-03-31T00:56:21;11.80;1.00
8979;DHT22;4524;51.364;5.448;2023-03-31T00:58:49;11.80;1.00
8979;DHT22;4524;51.364;5.448;2023-03-31T01:01:21;11.80;1.00
8979;DHT22;4524;51.364;5.448;2023-03-31T01:03:51;11.80;1.00
8979;DHT22;4524;51.364;5.448;2023-03-31T01:06:19;11.80;1.00
8979;DHT22;4524;51.364;5.448;2023-03-31T01:08:51;11.80;1.00
8979;DHT22;4524;51.364;5.448;2023-03-31T01:11:22;11.80;1.00
8979;DHT22;4524;51.364;5.448;2023-03-31T01:13:53;11.80;1.00
8979;DHT22;4524;51.364;5.448;2023-03-31T01:16:22;11.90;1.00
8979;DHT22;4524;51.364;5.448;2023-03-31T01:18:50;11.80;1.00
8979;DHT22;4524;51.364;5.448;2023-03-31T01:22:01;11.80;1.00
8979;DHT22;4524;51.364;5.448;2023-03-31T01:25:13;11.90;1.00
8979;DHT22;4524;51.364;5.448;2023-03-31T01:27:53;11.80;1.00
8979;DHT22;4524;51.364;5.448;2023-03-31T01:30:51;11.80;1.00
8979;DHT22;4524;51.364;5.448;2023-03-31T01:33:53;11.80;1.00
8979;DHT22;4524;51.364;5.448;2023-03-31T01:40:04;11.90;1.00
8979;DHT22;4524;51.364;5.448;2023-03-31T01:42:36;11.90;1.00
8979;DHT22;4524;51.364;5.448;2023-03-31T01:45:15;11.80;1.00
8979;DHT22;4524;51.364;5.448;2023-03-31T01:47:50;11.90;1.00
8979;DHT22;4524;51.364;5.448;2023-03-31T01:50:23;11.90;1.00
8979;DHT22;4524;51.364;5.448;2023-03-31T01:52:58;11.80;1.00
8979;DHT22;4524;51.364;5.448;2023-03-31T01:55:34;11.80;1.00
8979;DHT22;4524;51.364;5.448;2023-03-31T01:58:07;11.80;1.00
8979;DHT22;4524;51.364;5.448;2023-03-31T02:00:39;11.90;1.00
8979;DHT22;4524;51.364;5.448;2023-03-31T02:03:13;11.80;1.00
8979;DHT22;4524;51.364;5.448;2023-03-31T02:05:47;11.80;1.00
8979;DHT22;4524;51.364;5.448;2023-03-31T02:08:21;11.80;1.00
8979;DHT22;4524;51.364;5.448;2023-03-31T02:10:51;11.90;1.00
8979;DHT22;4524;51.364;5.448;2023-03-31T02:13:22;11.90;1.00
8979;DHT22;4524;51.364;5.448;2023-03-31T02:15:52;11.90;1.00
8979;DHT22;4524;51.364;5.448;2023-03-31T02:18:27;11.90;1.00
8979;DHT22;4524;51.364;5.448;2023-03-31T02:20:59;11.90;1.00
8979;DHT22;4524;51.364;5.448;2023-03-31T02:23:30;11.90;1.00
8979;DHT22;4524;51.364;5.448;2023-03-31T02:26:02;11.80;1.00
8979;DHT22;4524;51.364;5.448;2023-03-31T02:28:31;11.80;1.00
8979;DHT22;4524;51.364;5.448;2023-03-31T02:31:08;11.80;1.00
8979;DHT22;4524;51.364;5.448;2023-03-31T02:33:40;11.80;1.00
8979;DHT22;4524;51.364;5.448;2023-03-31T02:36:08;11.80;1.00
8979;DHT22;4524;51.364;5.448;2023-03-31T02:38:40;11.80;1.00
8979;DHT22;4524;51.364;5.448;2023-03-31T02:41:10;11.80;1.00
8979;DHT22;4524;51.364;5.448;2023-03-31T02:43:38;11.80;1.00
8979;DHT22;4524;51.364;5.448;2023-03-31T02:46:06;11.80;1.00
8979;DHT22;4524;51.364;5.448;2023-03-31T02:48:37;11.80;1.00
8979;DHT22;4524;51.364;5.448;2023-03-31T02:51:29;11.80;1.00
8979;DHT22;4524;51.364;5.448;2023-03-31T02:54:29;11.90;1.00
8979;DHT22;4524;51.364;5.448;2023-03-31T02:57:24;11.80;1.00
8979;DHT22;4524;51.364;5.448;2023-03-31T03:00:06;11.90;1.00
8979;DHT22;4524;51.364;5.448;2023-03-31T03:02:57;11.80;1.00
8979;DHT22;4524;51.364;5.448;2023-03-31T03:05:31;11.80;1.00
8979;DHT22;4524;51.364;5.448;2023-03-31T03:08:52;11.80;1.00
8979;DHT22;4524;51.364;5.448;2023-03-31T03:11:27;11.90;1.00
8979;DHT22;4524;51.364;5.448;2023-03-31T03:14:04;11.90;1.00
8979;DHT22;4524;51.364;5.448;2023-03-31T03:16:36;11.90;1.00
8979;DHT22;4524;51.364;5.448;2023-03-31T03:19:06;11.90;1.00
8979;DHT22;4524;51.364;5.448;2023-03-31T03:21:34;11.90;1.00
8979;DHT22;4524;51.364;5.448;2023-03-31T03:24:02;11.80;1.00
8979;DHT22;4524;51.364;5.448;2023-03-31T03:26:31;11.80;1.00
8979;DHT22;4524;51.364;5.448;2023-03-31T03:29:02;11.80;1.00
8979;DHT22;4524;51.364;5.448;2023-03-31T03:31:30;11.80;1.00
8979;DHT22;4524;51.364;5.448;2023-03-31T03:33:59;11.80;1.00
8979;DHT22;4524;51.364;5.448;2023-03-31T03:36:27;11.80;1.00
8979;DHT22;4524;51.364;5.448;2023-03-31T03:38:55;11.80;1.00
8979;DHT22;4524;51.364;5.448;2023-03-31T03:41:23;11.70;1.00
8979;DHT22;4524;51.364;5.448;2023-03-31T03:43:51;11.70;1.00
8979;DHT22;4524;51.364;5.448;2023-03-31T03:46:20;11.80;1.00
8979;DHT22;4524;51.364;5.448;2023-03-31T03:48:48;11.80;1.00
8979;DHT22;4524;51.364;5.448;2023-03-31T03:51:16;11.70;1.00
8979;DHT22;4524;51.364;5.448;2023-03-31T03:53:44;11.70;1.00
8979;DHT22;4524;51.364;5.448;2023-03-31T03:56:12;11.70;1.00
8979;DHT22;4524;51.364;5.448;2023-03-31T03:58:40;11.80;1.00
8979;DHT22;4524;51.364;5.448;2023-03-31T04:01:08;11.70;1.00
8979;DHT22;4524;51.364;5.448;2023-03-31T04:03:37;11.70;1.00
8979;DHT22;4524;51.364;5.448;2023-03-31T04:06:06;11.70;1.00
8979;DHT22;4524;51.364;5.448;2023-03-31T04:08:34;11.70;1.00
8979;DHT22;4524;51.364;5.448;2023-03-31T04:11:02;11.70;1.00
8979;DHT22;4524;51.364;5.448;2023-03-31T04:13:31;11.70;1.00
8979;DHT22;4524;51.364;5.448;2023-03-31T04:15:58;11.70;1.00
8979;DHT22;4524;51.364;5.448;2023-03-31T04:18:26;11.70;1.00
8979;DHT22;4524;51.364;5.448;2023-03-31T04:20:56;11.80;1.00
8979;DHT22;4524;51.364;5.448;2023-03-31T04:23:30;11.80;1.00
8979;DHT22;4524;51.364;5.448;2023-03-31T04:25:58;11.80;1.00
8979;DHT22;4524;51.364;5.448;2023-03-31T04:28:27;11.80;1.00
8979;DHT22;4524;51.364;5.448;2023-03-31T04:31:01;11.80;99.90
8979;DHT22;4524;51.364;5.448;2023-03-31T04:33:29;11.70;1.00
8979;DHT22;4524;51.364;5.448;2023-03-31T04:36:01;11.80;1.00
8979;DHT22;4524;51.364;5.448;2023-03-31T04:38:36;11.80;1.00
8979;DHT22;4524;51.364;5.448;2023-03-31T04:41:04;11.90;1.00
8979;DHT22;4524;51.364;5.448;2023-03-31T04:43:33;11.80;1.00
8979;DHT22;4524;51.364;5.448;2023-03-31T04:46:01;11.80;1.00
8979;DHT22;4524;51.364;5.448;2023-03-31T04:48:29;11.70;99.90
8979;DHT22;4524;51.364;5.448;2023-03-31T04:50:57;11.70;1.00
8979;DHT22;4524;51.364;5.448;2023-03-31T04:53:26;11.70;1.00
8979;DHT22;4524;51.364;5.448;2023-03-31T04:55:54;11.70;99.90
8979;DHT22;4524;51.364;5.448;2023-03-31T04:58:22;11.70;1.00
8979;DHT22;4524;51.364;5.448;2023-03-31T05:00:51;11.60;1.00
8979;DHT22;4524;51.364;5.448;2023-03-31T05:03:19;11.60;1.00
8979;DHT22;4524;51.364;5.448;2023-03-31T05:05:47;11.60;1.00
8979;DHT22;4524;51.364;5.448;2023-03-31T05:08:15;11.60;1.00
8979;DHT22;4524;51.364;5.448;2023-03-31T05:10:45;11.50;1.00
8979;DHT22;4524;51.364;5.448;2023-03-31T05:13:12;11.60;1.00
8979;DHT22;4524;51.364;5.448;2023-03-31T05:15:40;11.50;1.00
8979;DHT22;4524;51.364;5.448;2023-03-31T05:18:10;11.40;1.00
8979;DHT22;4524;51.364;5.448;2023-03-31T05:20:38;11.40;1.00
8979;DHT22;4524;51.364;5.448;2023-03-31T05:23:06;11.50;1.00
8979;DHT22;4524;51.364;5.448;2023-03-31T05:25:34;11.40;1.00
8979;DHT22;4524;51.364;5.448;2023-03-31T05:28:04;11.40;1.00
8979;DHT22;4524;51.364;5.448;2023-03-31T05:30:32;11.30;1.00
8979;DHT22;4524;51.364;5.448;2023-03-31T05:33:00;11.40;1.00
8979;DHT22;4524;51.364;5.448;2023-03-31T05:35:28;11.40;1.00
8979;DHT22;4524;51.364;5.448;2023-03-31T05:37:56;11.40;1.00
8979;DHT22;4524;51.364;5.448;2023-03-31T05:40:24;11.40;1.00
8979;DHT22;4524;51.364;5.448;2023-03-31T05:42:52;11.40;1.00
8979;DHT22;4524;51.364;5.448;2023-03-31T05:45:21;11.40;1.00
8979;DHT22;4524;51.364;5.448;2023-03-31T05:47:49;11.40;1.00
8979;DHT22;4524;51.364;5.448;2023-03-31T05:50:17;11.40;1.00
8979;DHT22;4524;51.364;5.448;2023-03-31T05:52:45;11.40;1.00
8979;DHT22;4524;51.364;5.448;2023-03-31T05:55:13;11.50;1.00
8979;DHT22;4524;51.364;5.448;2023-03-31T05:57:41;11.40;1.00
8979;DHT22;4524;51.364;5.448;2023-03-31T06:00:11;11.40;1.00
8979;DHT22;4524;51.364;5.448;2023-03-31T06:02:40;11.40;1.00
8979;DHT22;4524;51.364;5.448;2023-03-31T06:05:08;11.50;1.00
8979;DHT22;4524;51.364;5.448;2023-03-31T06:07:36;11.40;1.00
8979;DHT22;4524;51.364;5.448;2023-03-31T06:10:05;11.40;1.00
8979;DHT22;4524;51.364;5.448;2023-03-31T06:12:36;11.40;1.00
8979;DHT22;4524;51.364;5.448;2023-03-31T06:15:05;11.40;1.00
8979;DHT22;4524;51.364;5.448;2023-03-31T06:17:33;11.50;1.00
8979;DHT22;4524;51.364;5.448;2023-03-31T06:20:06;11.50;1.00
8979;DHT22;4524;51.364;5.448;2023-03-31T06:22:52;11.50;1.00
8979;DHT22;4524;51.364;5.448;2023-03-31T06:25:20;11.60;1.00
8979;DHT22;4524;51.364;5.448;2023-03-31T06:27:48;11.50;1.00
8979;DHT22;4524;51.364;5.448;2023-03-31T06:30:16;11.60;1.00
8979;DHT22;4524;51.364;5.448;2023-03-31T06:32:44;11.60;1.00
8979;DHT22;4524;51.364;5.448;2023-03-31T06:35:14;11.60;1.00
8979;DHT22;4524;51.364;5.448;2023-03-31T06:37:42;11.60;1.00
8979;DHT22;4524;51.364;5.448;2023-03-31T06:40:10;11.60;1.00
8979;DHT22;4524;51.364;5.448;2023-03-31T06:42:38;11.60;1.00
8979;DHT22;4524;51.364;5.448;2023-03-31T06:45:07;11.70;1.00
8979;DHT22;4524;51.364;5.448;2023-03-31T06:47:35;11.70;1.00
8979;DHT22;4524;51.364;5.448;2023-03-31T06:50:04;11.80;1.00
8979;DHT22;4524;51.364;5.448;2023-03-31T06:52:34;11.80;1.00
8979;DHT22;4524;51.364;5.448;2023-03-31T06:55:02;11.70;1.00
8979;DHT22;4524;51.364;5.448;2023-03-31T06:57:30;11.70;1.00
8979;DHT22;4524;51.364;5.448;2023-03-31T07:00:00;11.70;1.00
8979;DHT22;4524;51.364;5.448;2023-03-31T07:02:27;11.70;1.00
8979;DHT22;4524;51.364;5.448;2023-03-31T07:04:56;11.60;1.00
8979;DHT22;4524;51.364;5.448;2023-03-31T07:07:24;11.60;1.00
8979;DHT22;4524;51.364;5.448;2023-03-31T07:09:53;11.70;1.00
8979;DHT22;4524;51.364;5.448;2023-03-31T07:12:22;11.70;1.00
8979;DHT22;4524;51.364;5.448;2023-03-31T07:14:50;11.70;1.00
8979;DHT22;4524;51.364;5.448;2023-03-31T07:17:18;11.70;1.00
8979;DHT22;4524;51.364;5.448;2023-03-31T07:19:46;11.70;1.00
8979;DHT22;4524;51.364;5.448;2023-03-31T07:22:14;11.80;1.00
8979;DHT22;4524;51.364;5.448;2023-03-31T07:24:42;11.80;1.00
8979;DHT22;4524;51.364;5.448;2023-03-31T07:27:11;11.80;1.00
8979;DHT22;4524;51.364;5.448;2023-03-31T07:29:39;11.90;1.00
8979;DHT22;4524;51.364;5.448;2023-03-31T07:32:07;11.90;1.00
8979;DHT22;4524;51.364;5.448;2023-03-31T07:34:36;12.00;1.00
8979;DHT22;4524;51.364;5.448;2023-03-31T07:37:06;12.10;1.00
8979;DHT22;4524;51.364;5.448;2023-03-31T07:39:34;12.20;1.00
8979;DHT22;4524;51.364;5.448;2023-03-31T07:42:03;12.30;1.00
8979;DHT22;4524;51.364;5.448;2023-03-31T07:44:33;12.30;1.00
8979;DHT22;4524;51.364;5.448;2023-03-31T07:47:01;12.50;1.00
8979;DHT22;4524;51.364;5.448;2023-03-31T07:49:32;12.50;1.00
8979;DHT22;4524;51.364;5.448;2023-03-31T07:52:01;12.70;1.00
8979;DHT22;4524;51.364;5.448;2023-03-31T07:54:29;12.70;1.00
8979;DHT22;4524;51.364;5.448;2023-03-31T07:56:57;12.80;1.00
8979;DHT22;4524;51.364;5.448;2023-03-31T07:59:27;12.90;1.00
8979;DHT22;4524;51.364;5.448;2023-03-31T08:01:57;13.00;99.90
8979;DHT22;4524;51.364;5.448;2023-03-31T08:04:26;13.00;99.90
8979;DHT22;4524;51.364;5.448;2023-03-31T08:06:54;13.10;99.90
8979;DHT22;4524;51.364;5.448;2023-03-31T08:09:22;13.20;99.90
8979;DHT22;4524;51.364;5.448;2023-03-31T08:11:50;13.40;99.90
8979;DHT22;4524;51.364;5.448;2023-03-31T08:14:18;13.80;99.90
8979;DHT22;4524;51.364;5.448;2023-03-31T08:16:57;14.00;99.90
8979;DHT22;4524;51.364;5.448;2023-03-31T08:19:26;14.10;99.90
8979;DHT22;4524;51.364;5.448;2023-03-31T08:21:54;14.20;99.90
8979;DHT22;4524;51.364;5.448;2023-03-31T08:24:22;14.10;99.90
8979;DHT22;4524;51.364;5.448;2023-03-31T08:26:50;14.10;99.90
8979;DHT22;4524;51.364;5.448;2023-03-31T08:29:18;14.00;99.90
8979;DHT22;4524;51.364;5.448;2023-03-31T08:31:46;14.00;99.90
8979;DHT22;4524;51.364;5.448;2023-03-31T08:34:16;14.00;99.90
8979;DHT22;4524;51.364;5.448;2023-03-31T08:36:44;13.80;99.90
8979;DHT22;4524;51.364;5.448;2023-03-31T08:39:13;13.80;99.90
8979;DHT22;4524;51.364;5.448;2023-03-31T08:41:56;13.80;99.90
8979;DHT22;4524;51.364;5.448;2023-03-31T08:44:30;13.70;99.90
8979;DHT22;4524;51.364;5.448;2023-03-31T08:47:00;13.80;99.90
8979;DHT22;4524;51.364;5.448;2023-03-31T08:49:36;13.80;99.90
8979;DHT22;4524;51.364;5.448;2023-03-31T08:52:08;13.80;99.90
8979;DHT22;4524;51.364;5.448;2023-03-31T08:54:40;13.80;99.90
8979;DHT22;4524;51.364;5.448;2023-03-31T08:57:14;13.80;99.90
8979;DHT22;4524;51.364;5.448;2023-03-31T08:59:45;13.80;99.90
8979;DHT22;4524;51.364;5.448;2023-03-31T09:02:20;13.80;99.90
8979;DHT22;4524;51.364;5.448;2023-03-31T09:05:05;13.80;99.90
8979;DHT22;4524;51.364;5.448;2023-03-31T09:07:43;13.90;99.90
8979;DHT22;4524;51.364;5.448;2023-03-31T09:10:35;14.00;99.90
8979;DHT22;4524;51.364;5.448;2023-03-31T09:13:16;14.00;99.90
8979;DHT22;4524;51.364;5.448;2023-03-31T09:15:50;14.20;99.90
8979;DHT22;4524;51.364;5.448;2023-03-31T09:18:29;14.20;99.90
8979;DHT22;4524;51.364;5.448;2023-03-31T09:21:03;14.40;99.90
8979;DHT22;4524;51.364;5.448;2023-03-31T09:23:36;14.40;99.90
8979;DHT22;4524;51.364;5.448;2023-03-31T09:26:14;14.40;99.90
8979;DHT22;4524;51.364;5.448;2023-03-31T09:28:46;14.40;99.90
8979;DHT22;4524;51.364;5.448;2023-03-31T09:31:16;14.30;99.90
8979;DHT22;4524;51.364;5.448;2023-03-31T09:33:46;14.30;99.90
8979;DHT22;4524;51.364;5.448;2023-03-31T09:36:17;14.50;99.90
8979;DHT22;4524;51.364;5.448;2023-03-31T09:38:48;14.40;99.90
8979;DHT22;4524;51.364;5.448;2023-03-31T09:41:16;14.40;99.90
8979;DHT22;4524;51.364;5.448;2023-03-31T09:43:46;14.40;99.90
8979;DHT22;4524;51.364;5.448;2023-03-31T09:46:17;14.50;99.90
8979;DHT22;4524;51.364;5.448;2023-03-31T09:48:54;14.60;99.90
8979;DHT22;4524;51.364;5.448;2023-03-31T09:51:29;14.60;99.90
8979;DHT22;4524;51.364;5.448;2023-03-31T09:54:02;14.60;99.90
8979;DHT22;4524;51.364;5.448;2023-03-31T09:56:44;14.70;99.90
8979;DHT22;4524;51.364;5.448;2023-03-31T09:59:16;14.90;99.90
8979;DHT22;4524;51.364;5.448;2023-03-31T10:01:45;14.90;99.90
8979;DHT22;4524;51.364;5.448;2023-03-31T10:04:19;15.10;99.90
8979;DHT22;4524;51.364;5.448;2023-03-31T10:06:50;15.20;99.90
8979;DHT22;4524;51.364;5.448;2023-03-31T10:09:20;15.00;99.90
8979;DHT22;4524;51.364;5.448;2023-03-31T10:11:57;14.90;99.90
8979;DHT22;4524;51.364;5.448;2023-03-31T10:14:32;15.00;99.90
8979;DHT22;4524;51.364;5.448;2023-03-31T10:17:05;15.00;99.90
8979;DHT22;4524;51.364;5.448;2023-03-31T10:19:34;15.20;99.90
8979;DHT22;4524;51.364;5.448;2023-03-31T10:22:05;15.20;99.90
8979;DHT22;4524;51.364;5.448;2023-03-31T10:24:43;15.30;99.90
8979;DHT22;4524;51.364;5.448;2023-03-31T10:27:20;15.20;99.90
8979;DHT22;4524;51.364;5.448;2023-03-31T10:29:51;15.30;99.90
8979;DHT22;4524;51.364;5.448;2023-03-31T10:32:23;15.20;99.90
8979;DHT22;4524;51.364;5.448;2023-03-31T10:34:55;15.00;99.90
8979;DHT22;4524;51.364;5.448;2023-03-31T10:37:27;14.80;99.90
8979;DHT22;4524;51.364;5.448;2023-03-31T10:39:56;14.80;99.90
8979;DHT22;4524;51.364;5.448;2023-03-31T10:42:26;14.90;99.90
8979;DHT22;4524;51.364;5.448;2023-03-31T10:45:11;14.90;99.90
8979;DHT22;4524;51.364;5.448;2023-03-31T10:47:57;15.10;99.90
8979;DHT22;4524;51.364;5.448;2023-03-31T10:50:27;14.90;99.90
8979;DHT22;4524;51.364;5.448;2023-03-31T10:53:02;15.00;99.90
8979;DHT22;4524;51.364;5.448;2023-03-31T10:55:35;14.90;99.90
8979;DHT22;4524;51.364;5.448;2023-03-31T10:58:12;14.90;99.90
8979;DHT22;4524;51.364;5.448;2023-03-31T11:00:53;14.90;99.90
8979;DHT22;4524;51.364;5.448;2023-03-31T11:03:42;14.80;99.90
8979;DHT22;4524;51.364;5.448;2023-03-31T11:06:15;14.90;99.90
8979;DHT22;4524;51.364;5.448;2023-03-31T11:08:54;14.70;99.90
8979;DHT22;4524;51.364;5.448;2023-03-31T11:11:43;14.60;99.90
8979;DHT22;4524;51.364;5.448;2023-03-31T11:14:21;14.60;99.90
8979;DHT22;4524;51.364;5.448;2023-03-31T11:16:56;14.60;99.90
8979;DHT22;4524;51.364;5.448;2023-03-31T11:19:34;14.80;99.90
8979;DHT22;4524;51.364;5.448;2023-03-31T11:22:07;14.80;99.90
8979;DHT22;4524;51.364;5.448;2023-03-31T11:25:06;14.80;99.90
8979;DHT22;4524;51.364;5.448;2023-03-31T11:27:49;14.90;99.90
8979;DHT22;4524;51.364;5.448;2023-03-31T11:30:24;15.00;99.90
8979;DHT22;4524;51.364;5.448;2023-03-31T11:33:04;15.00;99.90
8979;DHT22;4524;51.364;5.448;2023-03-31T11:35:48;14.90;99.90
8979;DHT22;4524;51.364;5.448;2023-03-31T11:38:33;14.70;99.90
8979;DHT22;4524;51.364;5.448;2023-03-31T11:41:10;14.80;99.90
8979;DHT22;4524;51.364;5.448;2023-03-31T11:43:43;14.90;99.90
8979;DHT22;4524;51.364;5.448;2023-03-31T11:46:17;14.70;99.90
8979;DHT22;4524;51.364;5.448;2023-03-31T11:48:51;14.80;99.90
8979;DHT22;4524;51.364;5.448;2023-03-31T11:51:26;14.60;99.90
8979;DHT22;4524;51.364;5.448;2023-03-31T11:53:58;14.60;99.90
8979;DHT22;4524;51.364;5.448;2023-03-31T11:56:32;14.70;99.90
8979;DHT22;4524;51.364;5.448;2023-03-31T11:59:02;15.00;99.90
8979;DHT22;4524;51.364;5.448;2023-03-31T12:01:39;15.10;99.90
8979;DHT22;4524;51.364;5.448;2023-03-31T12:04:16;15.30;99.90
8979;DHT22;4524;51.364;5.448;2023-03-31T12:06:46;15.40;99.90
8979;DHT22;4524;51.364;5.448;2023-03-31T12:09:20;15.40;99.90
8979;DHT22;4524;51.364;5.448;2023-03-31T12:11:56;15.40;99.90
8979;DHT22;4524;51.364;5.448;2023-03-31T12:14:30;15.40;99.90
8979;DHT22;4524;51.364;5.448;2023-03-31T12:17:04;15.40;99.90
8979;DHT22;4524;51.364;5.448;2023-03-31T12:19:42;15.40;99.90
8979;DHT22;4524;51.364;5.448;2023-03-31T12:22:15;15.40;99.90
8979;DHT22;4524;51.364;5.448;2023-03-31T12:24:45;15.20;99.90
8979;DHT22;4524;51.364;5.448;2023-03-31T12:27:17;15.40;99.90
8979;DHT22;4524;51.364;5.448;2023-03-31T12:29:55;15.40;99.90
8979;DHT22;4524;51.364;5.448;2023-03-31T12:32:26;15.40;99.90
8979;DHT22;4524;51.364;5.448;2023-03-31T12:34:58;15.40;99.90
8979;DHT22;4524;51.364;5.448;2023-03-31T12:37:56;15.60;99.90
8979;DHT22;4524;51.364;5.448;2023-03-31T12:40:46;15.50;99.90
8979;DHT22;4524;51.364;5.448;2023-03-31T12:43:40;15.60;99.90
8979;DHT22;4524;51.364;5.448;2023-03-31T12:46:21;15.90;99.90
8979;DHT22;4524;51.364;5.448;2023-03-31T12:49:00;15.90;99.90
8979;DHT22;4524;51.364;5.448;2023-03-31T12:51:55;15.70;99.90
8979;DHT22;4524;51.364;5.448;2023-03-31T12:54:53;15.60;99.90
8979;DHT22;4524;51.364;5.448;2023-03-31T12:57:28;15.80;99.90
8979;DHT22;4524;51.364;5.448;2023-03-31T13:00:23;15.40;99.90
8979;DHT22;4524;51.364;5.448;2023-03-31T13:05:49;15.40;99.90
8979;DHT22;4524;51.364;5.448;2023-03-31T13:08:49;15.30;99.90
8979;DHT22;4524;51.364;5.448;2023-03-31T13:11:18;15.20;99.90
8979;DHT22;4524;51.364;5.448;2023-03-31T13:13:57;14.90;99.90
8979;DHT22;4524;51.364;5.448;2023-03-31T13:16:28;14.80;99.90
8979;DHT22;4524;51.364;5.448;2023-03-31T13:18:57;14.80;99.90
8979;DHT22;4524;51.364;5.448;2023-03-31T13:21:25;14.80;99.90
8979;DHT22;4524;51.364;5.448;2023-03-31T13:23:58;14.70;99.90
8979;DHT22;4524;51.364;5.448;2023-03-31T13:26:35;14.60;99.90
8979;DHT22;4524;51.364;5.448;2023-03-31T13:29:25;14.50;99.90
8979;DHT22;4524;51.364;5.448;2023-03-31T13:32:22;14.60;99.90
8979;DHT22;4524;51.364;5.448;2023-03-31T13:34:56;14.60;99.90
8979;DHT22;4524;51.364;5.448;2023-03-31T13:37:46;14.50;99.90
8979;DHT22;4524;51.364;5.448;2023-03-31T13:40:31;14.40;99.90
8979;DHT22;4524;51.364;5.448;2023-03-31T13:43:13;14.40;99.90
8979;DHT22;4524;51.364;5.448;2023-03-31T13:45:51;14.20;99.90
8979;DHT22;4524;51.364;5.448;2023-03-31T13:48:31;14.30;99.90
8979;DHT22;4524;51.364;5.448;2023-03-31T13:51:19;14.20;99.90
8979;DHT22;4524;51.364;5.448;2023-03-31T13:57:13;14.10;99.90
8979;DHT22;4524;51.364;5.448;2023-03-31T14:03:05;14.10;99.90
8979;DHT22;4524;51.364;5.448;2023-03-31T14:05:41;14.20;99.90
8979;DHT22;4524;51.364;5.448;2023-03-31T14:08:15;14.20;99.90
8979;DHT22;4524;51.364;5.448;2023-03-31T14:10:45;14.10;99.90
8979;DHT22;4524;51.364;5.448;2023-03-31T14:13:15;13.90;99.90
8979;DHT22;4524;51.364;5.448;2023-03-31T14:15:47;13.80;99.90
8979;DHT22;4524;51.364;5.448;2023-03-31T14:18:22;13.70;99.90
8979;DHT22;4524;51.364;5.448;2023-03-31T14:21:06;13.70;99.90
8979;DHT22;4524;51.364;5.448;2023-03-31T14:23:47;13.70;99.90
8979;DHT22;4524;51.364;5.448;2023-03-31T14:26:33;13.70;99.90
8979;DHT22;4524;51.364;5.448;2023-03-31T14:29:09;13.60;99.90
8979;DHT22;4524;51.364;5.448;2023-03-31T14:31:46;13.60;99.90
8979;DHT22;4524;51.364;5.448;2023-03-31T14:34:30;13.60;99.90
8979;DHT22;4524;51.364;5.448;2023-03-31T14:37:03;13.50;99.90
8979;DHT22;4524;51.364;5.448;2023-03-31T14:39:36;13.40;99.90
8979;DHT22;4524;51.364;5.448;2023-03-31T14:42:10;13.40;99.90
8979;DHT22;4524;51.364;5.448;2023-03-31T14:44:39;13.50;99.90
8979;DHT22;4524;51.364;5.448;2023-03-31T14:47:15;13.40;99.90
8979;DHT22;4524;51.364;5.448;2023-03-31T14:49:43;13.60;99.90
8979;DHT22;4524;51.364;5.448;2023-03-31T14:52:16;13.80;99.90
8979;DHT22;4524;51.364;5.448;2023-03-31T14:54:45;13.80;99.90
8979;DHT22;4524;51.364;5.448;2023-03-31T14:57:17;13.80;99.90
8979;DHT22;4524;51.364;5.448;2023-03-31T14:59:47;13.80;99.90
8979;DHT22;4524;51.364;5.448;2023-03-31T15:02:21;13.80;99.90
8979;DHT22;4524;51.364;5.448;2023-03-31T15:04:50;13.80;99.90
8979;DHT22;4524;51.364;5.448;2023-03-31T15:07:20;13.80;99.90
8979;DHT22;4524;51.364;5.448;2023-03-31T15:09:50;13.90;99.90
8979;DHT22;4524;51.364;5.448;2023-03-31T15:12:20;13.70;99.90
8979;DHT22;4524;51.364;5.448;2023-03-31T15:14:51;13.80;99.90
8979;DHT22;4524;51.364;5.448;2023-03-31T15:17:22;13.80;99.90
8979;DHT22;4524;51.364;5.448;2023-03-31T15:19:53;13.80;99.90
8979;DHT22;4524;51.364;5.448;2023-03-31T15:22:24;13.80;99.90
8979;DHT22;4524;51.364;5.448;2023-03-31T15:24:53;13.70;99.90
8979;DHT22;4524;51.364;5.448;2023-03-31T15:27:29;13.70;99.90
8979;DHT22;4524;51.364;5.448;2023-03-31T15:30:06;13.50;99.90
8979;DHT22;4524;51.364;5.448;2023-03-31T15:32:36;13.50;99.90
8979;DHT22;4524;51.364;5.448;2023-03-31T15:35:06;13.40;99.90
8979;DHT22;4524;51.364;5.448;2023-03-31T15:37:57;13.30;99.90
8979;DHT22;4524;51.364;5.448;2023-03-31T15:40:28;13.30;99.90
8979;DHT22;4524;51.364;5.448;2023-03-31T15:42:57;13.20;99.90
8979;DHT22;4524;51.364;5.448;2023-03-31T15:45:47;13.10;99.90
8979;DHT22;4524;51.364;5.448;2023-03-31T15:48:22;13.10;99.90
8979;DHT22;4524;51.364;5.448;2023-03-31T15:50:50;13.10;99.90
8979;DHT22;4524;51.364;5.448;2023-03-31T15:53:26;13.20;99.90
8979;DHT22;4524;51.364;5.448;2023-03-31T15:55:56;13.30;99.90
8979;DHT22;4524;51.364;5.448;2023-03-31T15:58:53;13.20;99.90
8979;DHT22;4524;51.364;5.448;2023-03-31T16:01:22;13.10;99.90
8979;DHT22;4524;51.364;5.448;2023-03-31T16:03:52;13.10;99.90
8979;DHT22;4524;51.364;5.448;2023-03-31T16:06:27;13.10;99.90
8979;DHT22;4524;51.364;5.448;2023-03-31T16:09:01;13.10;99.90
8979;DHT22;4524;51.364;5.448;2023-03-31T16:11:35;13.10;99.90
8979;DHT22;4524;51.364;5.448;2023-03-31T16:14:07;13.10;99.90
8979;DHT22;4524;51.364;5.448;2023-03-31T16:16:37;13.00;99.90
8979;DHT22;4524;51.364;5.448;2023-03-31T16:19:08;13.00;99.90
8979;DHT22;4524;51.364;5.448;2023-03-31T16:21:39;12.90;99.90
8979;DHT22;4524;51.364;5.448;2023-03-31T16:24:10;12.90;99.90
8979;DHT22;4524;51.364;5.448;2023-03-31T16:26:38;13.00;99.90
8979;DHT22;4524;51.364;5.448;2023-03-31T16:29:06;13.00;99.90
8979;DHT22;4524;51.364;5.448;2023-03-31T16:31:35;13.00;99.90
8979;DHT22;4524;51.364;5.448;2023-03-31T16:34:06;13.00;99.90
8979;DHT22;4524;51.364;5.448;2023-03-31T16:36:35;13.00;99.90
8979;DHT22;4524;51.364;5.448;2023-03-31T16:39:04;13.00;99.90
8979;DHT22;4524;51.364;5.448;2023-03-31T16:41:35;13.00;99.90
8979;DHT22;4524;51.364;5.448;2023-03-31T16:44:04;12.90;99.90
8979;DHT22;4524;51.364;5.448;2023-03-31T16:46:32;12.90;99.90
8979;DHT22;4524;51.364;5.448;2023-03-31T16:49:01;13.00;99.90
8979;DHT22;4524;51.364;5.448;2023-03-31T16:51:29;12.80;99.90
8979;DHT22;4524;51.364;5.448;2023-03-31T16:53:57;12.90;99.90
8979;DHT22;4524;51.364;5.448;2023-03-31T16:56:25;12.80;99.90
8979;DHT22;4524;51.364;5.448;2023-03-31T16:58:54;12.70;99.90
8979;DHT22;4524;51.364;5.448;2023-03-31T17:01:23;12.60;99.90